Time;durP1;ratioP1;P1;durP2;ratioP2;P2;SDS_P1;SDS_P2;PMS_P1;PMS_P2;Temp;Humidity;BMP_temperature;BMP_pressure;BME280_temperature;BME280_humidity;BME280_pressure;Samples;Min_cycle;Max_cycle;Signal;HPM_P1;HPM_P2
2023/07/16 00:00:45;;;;;;;6.93;0.40;;;;;;;18.86;80.21;99970.13;7362037;19;20018;-63
2023/07/16 00:03:14;;;;;;;5.13;0.40;;;;;;;18.87;80.57;99966.41;7362425;19;20015;-62
2023/07/16 00:05:41;;;;;;;4.43;0.57;;;;;;;18.89;80.70;99972.34;7363338;19;20026;-62
2023/07/16 00:08:08;;;;;;;5.15;0.40;;;;;;;18.91;80.67;99980.91;7359987;19;20022;-62
2023/07/16 00:10:37;;;;;;;4.90;0.40;;;;;;;18.96;80.96;99979.19;7364249;19;20018;-63
2023/07/16 00:13:04;;;;;;;7.35;0.50;;;;;;;18.93;80.27;99970.84;7364331;19;20037;-61
2023/07/16 00:15:32;;;;;;;6.22;0.50;;;;;;;18.95;80.47;99977.56;7363373;19;20025;-61
2023/07/16 00:17:59;;;;;;;4.50;0.40;;;;;;;18.97;80.24;99985.34;7361123;19;21691;-61
2023/07/16 00:20:27;;;;;;;6.22;0.40;;;;;;;18.99;80.60;99975.25;7362854;19;20653;-62
2023/07/16 00:22:54;;;;;;;5.45;0.40;;;;;;;18.98;80.67;99981.63;7363801;19;20598;-61
2023/07/16 00:25:22;;;;;;;7.88;0.50;;;;;;;19.02;81.06;99975.63;7364748;19;20052;-62
2023/07/16 00:27:49;;;;;;;8.23;0.60;;;;;;;19.01;80.02;99976.66;7360419;19;20689;-61
2023/07/16 00:30:16;;;;;;;11.10;0.93;;;;;;;18.93;80.13;99977.00;7365879;19;20019;-62
2023/07/16 00:32:44;;;;;;;8.30;0.50;;;;;;;18.93;80.87;99981.50;7360563;19;20018;-63
2023/07/16 00:35:11;;;;;;;8.98;0.63;;;;;;;18.93;81.08;99985.00;7362331;19;20014;-66
2023/07/16 00:37:39;;;;;;;10.40;0.70;;;;;;;18.90;80.81;99980.09;7362767;19;20015;-61
2023/07/16 00:40:07;;;;;;;5.35;0.50;;;;;;;18.89;81.11;99973.16;7354816;19;20023;-61
2023/07/16 00:42:34;;;;;;;9.52;0.50;;;;;;;18.90;81.12;99988.09;7362568;19;20018;-62
2023/07/16 00:45:02;;;;;;;8.00;0.40;;;;;;;18.86;81.69;99997.59;7364107;19;21653;-62
2023/07/16 00:47:30;;;;;;;3.58;0.38;;;;;;;18.83;81.69;99990.06;7362559;19;20677;-62
2023/07/16 00:49:58;;;;;;;13.60;1.10;;;;;;;18.79;81.89;99997.69;7359803;19;20042;-63
2023/07/16 00:52:25;;;;;;;10.05;0.82;;;;;;;18.80;81.83;99996.66;7362305;19;20412;-62
2023/07/16 00:54:53;;;;;;;7.57;0.57;;;;;;;18.80;81.59;100006.50;7360919;19;20014;-62
2023/07/16 00:57:23;;;;;;;7.43;0.68;;;;;;;18.76;81.53;99994.66;7366267;19;20046;-63
2023/07/16 00:59:50;;;;;;;9.55;0.60;;;;;;;18.76;81.47;99997.31;7357936;19;20019;-62
2023/07/16 01:02:18;;;;;;;10.60;0.60;;;;;;;18.74;82.04;99994.09;7364807;19;20031;-62
2023/07/16 01:04:45;;;;;;;4.15;0.40;;;;;;;18.73;81.87;100000.47;7360355;19;20011;-62
2023/07/16 01:07:15;;;;;;;10.30;1.33;;;;;;;18.72;81.78;99996.16;7363660;19;20015;-61
2023/07/16 01:09:42;;;;;;;6.03;0.70;;;;;;;18.74;82.01;100008.22;7360748;19;20022;-62
2023/07/16 01:12:11;;;;;;;12.10;0.90;;;;;;;18.72;82.04;100010.31;7362799;19;20014;-62
2023/07/16 01:14:40;;;;;;;9.00;0.73;;;;;;;18.69;81.71;100020.63;7362784;19;20645;-62
2023/07/16 01:17:07;;;;;;;9.57;0.85;;;;;;;18.68;81.85;100006.47;7360057;19;20599;-62
2023/07/16 01:19:35;;;;;;;9.73;1.20;;;;;;;18.65;81.74;100016.75;7362691;19;20026;-62
2023/07/16 01:22:07;;;;;;;6.10;0.63;;;;;;;18.60;81.86;100025.41;7363675;19;20010;-62
2023/07/16 01:24:58;;;;;;;6.72;0.65;;;;;;;18.63;82.37;100018.84;7362831;19;20288;-61
2023/07/16 01:27:35;;;;;;;7.07;0.60;;;;;;;18.65;82.05;100016.75;7362540;19;20015;-62
2023/07/16 01:30:09;;;;;;;7.30;0.70;;;;;;;18.66;82.02;100016.53;7361381;19;20117;-62
2023/07/16 01:32:37;;;;;;;9.18;0.60;;;;;;;18.69;82.21;100021.41;7358741;19;20053;-62
2023/07/16 01:35:06;;;;;;;11.25;1.63;;;;;;;18.68;81.78;100029.66;7357532;19;20103;-60
2023/07/16 01:37:33;;;;;;;6.97;0.63;;;;;;;18.63;81.41;100018.84;7361703;19;20047;-63
2023/07/16 01:40:03;;;;;;;13.63;1.08;;;;;;;18.65;81.62;100028.22;7361886;19;20019;-62
2023/07/16 01:42:30;;;;;;;9.63;0.80;;;;;;;18.64;81.60;100029.25;7362182;19;20018;-62
2023/07/16 01:44:57;;;;;;;3.38;0.40;;;;;;;18.60;81.50;100030.75;7363225;19;20014;-61
2023/07/16 01:47:25;;;;;;;9.27;0.70;;;;;;;18.55;80.84;100027.13;7364667;19;20022;-61
2023/07/16 01:49:52;;;;;;;7.53;1.00;;;;;;;18.44;81.10;100022.56;7359524;19;20010;-61
2023/07/16 01:52:20;;;;;;;9.43;0.70;;;;;;;18.41;81.63;100031.78;7362198;19;20022;-61
2023/07/16 01:54:47;;;;;;;10.05;0.80;;;;;;;18.41;81.46;100029.13;7355113;19;20022;-61
2023/07/16 01:57:15;;;;;;;8.90;0.60;;;;;;;18.43;82.16;100036.91;7359622;19;20165;-61
2023/07/16 01:59:42;;;;;;;9.95;0.80;;;;;;;18.44;80.93;100047.31;7362870;19;20024;-61
2023/07/16 02:02:09;;;;;;;8.80;0.95;;;;;;;18.48;80.94;100048.53;7360091;19;20021;-62
2023/07/16 02:04:36;;;;;;;9.50;1.08;;;;;;;18.44;79.89;100041.19;7359261;19;20021;-60
2023/07/16 02:07:04;;;;;;;7.43;0.73;;;;;;;18.44;80.17;100055.31;7359020;19;20010;-61
2023/07/16 02:09:34;;;;;;;7.05;1.00;;;;;;;18.46;80.17;100057.75;7359676;19;20042;-61
2023/07/16 02:12:01;;;;;;;8.77;0.98;;;;;;;18.48;79.96;100051.19;7361408;19;20026;-62
2023/07/16 02:14:29;;;;;;;5.63;0.70;;;;;;;18.49;79.10;100057.34;7361639;19;20038;-62
2023/07/16 02:16:56;;;;;;;8.60;1.08;;;;;;;18.49;79.01;100062.66;7362009;19;20017;-62
2023/07/16 02:19:25;;;;;;;11.82;0.70;;;;;;;18.54;78.31;100066.28;7363473;19;20359;-61
2023/07/16 02:21:54;;;;;;;9.45;1.08;;;;;;;18.53;78.00;100061.16;7362474;19;20037;-61
2023/07/16 02:24:21;;;;;;;9.93;0.88;;;;;;;18.51;77.74;100066.72;7357581;19;20026;-60
2023/07/16 02:26:48;;;;;;;6.63;1.10;;;;;;;18.51;78.31;100072.03;7360445;19;20033;-63
2023/07/16 02:29:16;;;;;;;10.88;0.80;;;;;;;18.49;77.74;100075.97;7359183;19;20016;-62
2023/07/16 02:31:45;;;;;;;12.57;1.15;;;;;;;18.48;77.47;100059.19;7359898;19;20035;-62
2023/07/16 02:34:13;;;;;;;9.32;0.82;;;;;;;18.47;76.91;100083.38;7355943;19;20037;-62
2023/07/16 02:36:40;;;;;;;11.98;1.08;;;;;;;18.45;77.18;100086.25;7352642;19;20015;-62
2023/07/16 02:39:08;;;;;;;13.00;1.13;;;;;;;18.41;76.64;100086.91;7357919;19;20015;-62
2023/07/16 02:41:35;;;;;;;9.07;1.05;;;;;;;18.41;77.41;100092.25;7360024;19;20206;-62
2023/07/16 02:44:05;;;;;;;10.63;0.80;;;;;;;18.35;76.71;100084.09;7357243;19;20502;-61
2023/07/16 02:46:35;;;;;;;12.13;1.00;;;;;;;18.32;76.67;100091.75;7358511;19;20023;-62
2023/07/16 02:49:04;;;;;;;10.90;0.88;;;;;;;18.26;77.25;100082.78;7356393;19;20037;-62
2023/07/16 02:51:31;;;;;;;8.90;0.60;;;;;;;18.24;76.92;100079.50;7357942;19;20372;-62
2023/07/16 02:53:58;;;;;;;10.00;1.48;;;;;;;18.23;77.26;100088.56;7382971;19;20018;-61
2023/07/16 02:56:25;;;;;;;13.75;1.75;;;;;;;18.20;77.90;100086.31;7382042;19;20025;-62
2023/07/16 02:58:53;;;;;;;16.85;1.35;;;;;;;18.19;77.95;100099.84;7358872;19;20750;-66
2023/07/16 03:01:20;;;;;;;12.90;1.25;;;;;;;18.19;78.00;100099.84;7359808;19;20034;-62
2023/07/16 03:03:48;;;;;;;14.77;1.77;;;;;;;18.22;78.12;100097.56;7358468;19;20176;-61
2023/07/16 03:06:15;;;;;;;7.30;0.75;;;;;;;18.20;76.13;100102.28;7360535;19;20035;-61
2023/07/16 03:08:47;;;;;;;11.18;1.15;;;;;;;18.16;76.43;100101.13;7356490;19;20018;-61
2023/07/16 03:11:14;;;;;;;11.70;1.92;;;;;;;18.15;76.18;100102.16;7358713;19;20026;-60
2023/07/16 03:13:41;;;;;;;10.13;1.08;;;;;;;18.13;76.53;100111.41;7361579;19;21751;-62
2023/07/16 03:16:09;;;;;;;12.35;0.80;;;;;;;18.12;77.04;100107.91;7360593;19;20014;-61
2023/07/16 03:18:36;;;;;;;7.75;0.90;;;;;;;18.09;76.11;100113.66;7353045;19;20022;-61
2023/07/16 03:21:03;;;;;;;9.52;0.70;;;;;;;18.06;76.38;100121.28;7358099;19;20030;-61
2023/07/16 03:23:31;;;;;;;11.52;1.08;;;;;;;18.07;76.82;100126.41;7360154;19;20030;-61
2023/07/16 03:25:58;;;;;;;13.52;2.50;;;;;;;18.09;77.41;100129.66;7361500;19;20479;-61
2023/07/16 03:28:25;;;;;;;13.10;1.20;;;;;;;18.12;77.67;100134.56;7356720;19;20106;-63
2023/07/16 03:30:53;;;;;;;10.07;1.05;;;;;;;18.11;76.74;100140.91;7356429;19;20042;-62
2023/07/16 03:33:21;;;;;;;15.30;2.03;;;;;;;18.10;76.50;100155.25;7358737;19;20018;-61
2023/07/16 03:35:49;;;;;;;8.90;0.70;;;;;;;18.06;75.77;100142.59;7352654;19;20369;-60
2023/07/16 03:38:16;;;;;;;8.82;1.33;;;;;;;18.02;76.05;100154.72;7355908;19;20142;-62
2023/07/16 03:40:47;;;;;;;9.93;0.65;;;;;;;18.00;76.53;100154.09;7358205;19;20018;-62
2023/07/16 03:43:15;;;;;;;13.60;1.33;;;;;;;17.94;75.42;100151.28;7357931;19;20018;-64
2023/07/16 03:45:43;;;;;;;15.88;1.20;;;;;;;17.89;75.68;100163.63;7355943;19;20010;-62
2023/07/16 03:48:10;;;;;;;16.45;1.23;;;;;;;17.84;76.56;100163.44;7353259;19;20019;-62
2023/07/16 03:50:38;;;;;;;12.40;1.38;;;;;;;17.83;76.28;100164.47;7353505;19;20029;-62
2023/07/16 03:53:05;;;;;;;9.13;0.85;;;;;;;17.81;76.19;100159.38;7361523;19;20135;-62
2023/07/16 03:55:32;;;;;;;14.02;1.15;;;;;;;17.85;76.43;100175.72;7366959;19;20014;-62
2023/07/16 03:58:00;;;;;;;9.27;1.25;;;;;;;17.89;77.21;100176.91;7364080;19;20050;-61
2023/07/16 04:00:27;;;;;;;12.23;0.90;;;;;;;17.89;76.96;100180.41;7362099;19;20385;-61
2023/07/16 04:02:54;;;;;;;11.35;0.80;;;;;;;17.92;76.57;100176.50;7364826;19;20110;-62
2023/07/16 04:05:21;;;;;;;9.32;1.20;;;;;;;17.93;76.73;100191.41;7365994;19;20046;-61
2023/07/16 04:07:50;;;;;;;9.27;0.90;;;;;;;17.88;75.77;100192.06;7361159;19;20010;-62
2023/07/16 04:10:18;;;;;;;10.57;0.85;;;;;;;17.85;75.91;100194.34;7364477;19;20042;-61
2023/07/16 04:12:45;;;;;;;15.18;1.48;;;;;;;17.83;76.22;100191.91;7363975;19;20028;-62
2023/07/16 04:15:13;;;;;;;11.48;1.85;;;;;;;17.84;76.76;100201.53;7365099;19;20018;-62
2023/07/16 04:17:40;;;;;;;9.43;0.85;;;;;;;17.87;76.58;100200.31;7365365;19;20018;-62
2023/07/16 04:20:08;;;;;;;14.23;0.90;;;;;;;17.92;75.50;100208.44;7364559;19;20079;-62
2023/07/16 04:22:36;;;;;;;19.30;1.10;;;;;;;17.89;75.91;100212.34;7358632;19;20018;-62
2023/07/16 04:25:03;;;;;;;10.88;1.45;;;;;;;17.88;75.97;100218.69;7362906;19;20029;-61
2023/07/16 04:27:31;;;;;;;10.27;0.80;;;;;;;17.89;76.58;100219.50;7365718;19;20094;-62
2023/07/16 04:29:58;;;;;;;13.13;1.55;;;;;;;17.86;75.50;100215.44;7361643;19;20014;-61
2023/07/16 04:32:26;;;;;;;12.82;1.33;;;;;;;17.83;75.29;100229.16;7359495;19;20011;-62
2023/07/16 04:34:53;;;;;;;11.07;0.95;;;;;;;17.80;75.49;100229.63;7362603;19;20094;-60
2023/07/16 04:37:20;;;;;;;12.57;0.90;;;;;;;17.84;75.62;100230.00;7357756;19;20014;-61
2023/07/16 04:39:48;;;;;;;9.80;1.10;;;;;;;17.84;75.80;100237.97;7361223;19;20198;-62
2023/07/16 04:42:16;;;;;;;8.48;0.70;;;;;;;17.76;75.03;100249.72;7364366;19;20023;-63
2023/07/16 04:44:44;;;;;;;14.35;1.02;;;;;;;17.74;75.53;100246.44;7364818;19;20018;-62
2023/07/16 04:47:11;;;;;;;12.93;1.10;;;;;;;17.76;75.85;100247.03;7363058;19;20460;-61
2023/07/16 04:49:38;;;;;;;13.55;0.85;;;;;;;17.71;74.73;100256.69;7361016;19;20037;-61
2023/07/16 04:52:06;;;;;;;13.82;0.93;;;;;;;17.66;75.44;100253.88;7363873;19;20391;-62
2023/07/16 04:54:37;;;;;;;10.23;0.88;;;;;;;17.67;76.08;100258.16;7362751;19;20047;-68
2023/07/16 04:57:06;;;;;;;10.38;2.03;;;;;;;17.69;75.71;100256.09;7362055;19;20046;-62
2023/07/16 04:59:34;;;;;;;8.95;0.90;;;;;;;17.71;75.73;100262.84;7361673;19;20109;-62
2023/07/16 05:02:04;;;;;;;14.93;2.22;;;;;;;17.66;75.51;100269.81;7359436;19;20028;-63
2023/07/16 05:04:33;;;;;;;12.38;0.82;;;;;;;17.69;76.15;100278.19;7359035;19;20029;-61
2023/07/16 05:07:02;;;;;;;11.35;1.25;;;;;;;17.71;75.40;100283.31;7362017;19;20550;-62
2023/07/16 05:09:30;;;;;;;9.05;0.93;;;;;;;17.72;74.90;100280.44;7358904;19;20470;-61
2023/07/16 05:11:58;;;;;;;12.45;1.42;;;;;;;17.71;75.33;100278.81;7362983;19;20861;-63
2023/07/16 05:14:26;;;;;;;9.27;0.73;;;;;;;17.71;75.12;100278.81;7360813;19;20033;-62
2023/07/16 05:16:55;;;;;;;11.55;1.00;;;;;;;17.75;75.70;100293.31;7362545;19;20018;-62
2023/07/16 05:19:23;;;;;;;11.07;0.90;;;;;;;17.80;75.16;100290.84;7361697;19;20098;-62
2023/07/16 05:21:50;;;;;;;10.25;0.80;;;;;;;17.80;75.36;100290.00;7361642;19;20471;-61
2023/07/16 05:24:17;;;;;;;15.35;1.70;;;;;;;17.80;75.40;100295.34;7360907;19;20021;-62
2023/07/16 05:26:45;;;;;;;11.10;0.80;;;;;;;17.82;75.02;100295.94;7364843;19;20154;-62
2023/07/16 05:29:12;;;;;;;9.20;0.70;;;;;;;17.76;74.03;100297.63;7359531;19;20067;-62
2023/07/16 05:31:39;;;;;;;14.75;1.33;;;;;;;17.76;74.91;100304.78;7360134;19;20471;-62
2023/07/16 05:34:07;;;;;;;12.82;0.75;;;;;;;17.78;75.57;100297.38;7362824;19;20780;-62
2023/07/16 05:36:34;;;;;;;9.80;0.60;;;;;;;17.76;74.85;100300.28;7363069;19;20057;-62
2023/07/16 05:39:01;;;;;;;6.50;0.70;;;;;;;17.79;75.91;100305.16;7357252;19;20011;-63
2023/07/16 05:41:29;;;;;;;12.98;1.08;;;;;;;17.84;75.13;100310.66;7364478;19;20834;-62
2023/07/16 05:43:56;;;;;;;13.75;1.00;;;;;;;17.85;74.15;100301.66;7363514;19;20049;-63
2023/07/16 05:46:23;;;;;;;7.38;0.90;;;;;;;17.85;74.54;100312.31;7360080;19;20052;-63
2023/07/16 05:48:52;;;;;;;7.65;0.80;;;;;;;17.88;74.22;100324.34;7358815;19;20142;-62
2023/07/16 05:51:19;;;;;;;9.25;0.77;;;;;;;17.86;73.89;100324.59;7360100;19;20019;-61
2023/07/16 05:53:46;;;;;;;10.13;0.70;;;;;;;17.91;74.63;100322.09;7360479;19;20435;-63
2023/07/16 05:56:16;;;;;;;10.50;0.90;;;;;;;17.88;73.87;100322.50;7360230;19;20120;-62
2023/07/16 05:58:44;;;;;;;11.45;0.75;;;;;;;17.92;73.90;100328.25;7358976;19;20018;-62
2023/07/16 06:01:11;;;;;;;15.50;1.00;;;;;;;17.89;73.41;100324.16;7360128;19;20024;-61
2023/07/16 06:03:39;;;;;;;11.68;0.98;;;;;;;17.92;73.53;100325.59;7354995;19;20026;-63
2023/07/16 06:06:09;;;;;;;11.73;0.77;;;;;;;17.94;72.95;100339.47;7357673;19;20022;-62
2023/07/16 06:08:36;;;;;;;10.07;2.20;;;;;;;17.96;73.13;100332.13;7358578;19;20029;-62
2023/07/16 06:11:04;;;;;;;10.50;0.70;;;;;;;17.98;73.15;100337.22;7361797;19;20506;-62
2023/07/16 06:13:31;;;;;;;12.18;1.17;;;;;;;18.00;72.96;100338.63;7362144;19;20014;-62
2023/07/16 06:15:58;;;;;;;6.05;0.60;;;;;;;18.07;73.27;100343.94;7357503;19;20037;-61
2023/07/16 06:18:26;;;;;;;11.68;0.70;;;;;;;18.10;72.52;100346.97;7359300;19;20018;-62
2023/07/16 06:20:55;;;;;;;9.20;1.35;;;;;;;18.11;72.02;100351.28;7361989;19;20858;-62
2023/07/16 06:23:22;;;;;;;9.55;0.55;;;;;;;18.14;71.73;100353.50;7360031;19;20014;-61
2023/07/16 06:25:54;;;;;;;9.32;0.88;;;;;;;18.18;71.76;100359.25;7359409;19;21278;-62
2023/07/16 06:28:22;;;;;;;14.77;2.58;;;;;;;18.28;73.12;100355.09;7298576;19;20038;-61
2023/07/16 06:30:51;;;;;;;11.15;0.60;;;;;;;18.33;70.99;100344.59;7355353;19;20022;-61
2023/07/16 06:33:19;;;;;;;8.02;0.75;;;;;;;18.51;70.42;100356.34;7358175;19;20019;-63
2023/07/16 06:35:47;;;;;;;10.43;0.77;;;;;;;18.78;69.83;100352.47;7356093;19;20049;-62
2023/07/16 06:38:15;;;;;;;9.57;0.60;;;;;;;18.92;69.44;100380.66;7356212;19;20018;-61
2023/07/16 06:40:52;;;;;;;7.78;0.95;;;;;;;18.88;67.98;100379.47;7355300;19;20041;-61
2023/07/16 06:43:19;;;;;;;6.30;0.55;;;;;;;18.85;68.47;100381.75;7358970;19;20018;-62
2023/07/16 06:45:50;;;;;;;10.68;1.67;;;;;;;18.75;67.50;100387.56;7356050;19;20019;-61
2023/07/16 06:48:18;;;;;;;7.15;0.60;;;;;;;18.63;67.66;100386.66;7359874;19;20716;-61
2023/07/16 06:50:45;;;;;;;8.15;0.60;;;;;;;18.50;68.15;100387.50;7358104;19;20011;-66
2023/07/16 06:53:12;;;;;;;11.55;0.88;;;;;;;18.50;69.19;100395.50;7355028;19;20471;-61
2023/07/16 06:55:39;;;;;;;8.75;0.68;;;;;;;18.58;69.92;100391.81;7361319;19;20018;-61
2023/07/16 06:58:10;;;;;;;9.68;0.73;;;;;;;18.60;69.70;100400.38;7359445;19;20022;-61
2023/07/16 07:00:37;;;;;;;6.18;0.60;;;;;;;18.57;68.41;100393.66;7356289;19;20019;-61
2023/07/16 07:03:05;;;;;;;10.02;0.75;;;;;;;18.66;69.64;100396.84;7356803;19;20051;-61
2023/07/16 07:05:32;;;;;;;6.60;0.50;;;;;;;18.66;69.48;100399.53;7358944;19;20415;-62
2023/07/16 07:08:00;;;;;;;11.68;0.60;;;;;;;18.67;68.69;100401.97;7359805;19;20014;-63
2023/07/16 07:10:27;;;;;;;10.23;1.23;;;;;;;18.68;68.15;100405.47;7356747;19;20027;-62
2023/07/16 07:12:54;;;;;;;6.95;0.55;;;;;;;18.69;69.30;100418.56;7359426;19;20034;-63
2023/07/16 07:15:21;;;;;;;4.75;0.57;;;;;;;18.71;68.62;100424.50;7312412;19;21765;-63
2023/07/16 07:17:51;;;;;;;11.95;0.60;;;;;;;18.77;69.36;100428.97;7358534;19;20039;-63
2023/07/16 07:20:20;;;;;;;4.25;0.45;;;;;;;18.78;68.36;100432.47;7359467;19;20720;-62
2023/07/16 07:22:48;;;;;;;6.07;0.60;;;;;;;18.80;68.88;100430.38;7359024;19;20040;-61
2023/07/16 07:25:15;;;;;;;11.60;0.63;;;;;;;18.79;67.80;100432.22;7358833;19;20022;-62
2023/07/16 07:27:43;;;;;;;10.48;0.70;;;;;;;18.79;67.87;100442.91;7359560;19;20014;-61
2023/07/16 07:30:10;;;;;;;5.20;0.40;;;;;;;18.79;67.47;100444.78;7360407;19;20060;-62
2023/07/16 07:32:38;;;;;;;5.75;0.70;;;;;;;18.86;68.55;100447.38;7362952;19;20029;-60
2023/07/16 07:35:06;;;;;;;8.85;0.75;;;;;;;18.91;68.49;100456.34;7362900;19;20542;-61
2023/07/16 07:37:33;;;;;;;9.05;0.77;;;;;;;18.92;68.06;100470.50;7364082;19;20114;-61
2023/07/16 07:40:02;;;;;;;7.97;0.88;;;;;;;18.92;68.15;100457.19;7356680;19;20033;-61
2023/07/16 07:42:30;;;;;;;11.93;0.63;;;;;;;18.87;67.55;100476.50;7362415;19;20412;-62
2023/07/16 07:44:57;;;;;;;12.23;0.75;;;;;;;18.86;67.84;100466.84;7364220;19;20377;-63
2023/07/16 07:47:25;;;;;;;7.35;0.60;;;;;;;18.86;68.04;100466.84;7362930;19;20018;-62
2023/07/16 07:49:53;;;;;;;4.85;0.40;;;;;;;18.85;67.63;100467.88;7365062;19;20506;-62
2023/07/16 07:52:20;;;;;;;10.27;0.98;;;;;;;18.96;67.77;100485.03;7363128;19;20010;-62
2023/07/16 07:54:47;;;;;;;7.45;0.93;;;;;;;19.10;67.08;100470.56;7364428;19;20099;-62
2023/07/16 07:57:14;;;;;;;7.95;0.50;;;;;;;19.21;66.96;100468.00;7361974;19;20014;-61
2023/07/16 07:59:44;;;;;;;10.25;0.90;;;;;;;19.26;66.60;100470.03;7363566;19;20010;-62
2023/07/16 08:02:12;;;;;;;7.57;0.55;;;;;;;19.30;66.30;100465.09;7362920;19;20018;-61
2023/07/16 08:04:39;;;;;;;6.05;0.60;;;;;;;19.40;66.35;100463.53;7365124;19;20597;-62
2023/07/16 08:07:07;;;;;;;9.27;0.70;;;;;;;19.48;65.75;100457.16;7365281;19;20030;-61
2023/07/16 08:09:34;;;;;;;6.07;0.50;;;;;;;19.60;66.35;100460.72;7361167;19;20019;-62
2023/07/16 08:12:01;;;;;;;9.82;0.70;;;;;;;19.70;66.04;100457.53;7363966;19;20014;-62
2023/07/16 08:14:29;;;;;;;6.22;0.50;;;;;;;19.78;65.73;100473.25;7361727;19;20039;-62
2023/07/16 08:16:56;;;;;;;9.63;0.50;;;;;;;19.82;65.56;100475.28;7362750;19;20163;-61
2023/07/16 08:19:24;;;;;;;7.32;0.65;;;;;;;19.82;64.64;100469.94;7361199;19;20019;-61
2023/07/16 08:21:51;;;;;;;5.78;0.50;;;;;;;19.85;65.63;100476.69;7364568;19;20010;-62
2023/07/16 08:24:18;;;;;;;9.30;0.68;;;;;;;19.88;65.53;100477.06;7362262;19;20010;-61
2023/07/16 08:26:46;;;;;;;7.68;0.50;;;;;;;19.89;64.33;100476.03;7363639;19;20123;-62
2023/07/16 08:29:13;;;;;;;5.80;0.50;;;;;;;19.90;65.12;100480.34;7361676;19;20026;-62
2023/07/16 08:31:41;;;;;;;10.30;0.70;;;;;;;19.88;65.55;100479.72;7360280;19;20020;-63
2023/07/16 08:34:08;;;;;;;11.57;0.63;;;;;;;19.95;65.22;100479.66;7363478;19;20028;-62
2023/07/16 08:36:37;;;;;;;10.80;0.88;;;;;;;20.05;65.28;100486.13;7361844;19;20022;-61
2023/07/16 08:39:05;;;;;;;6.72;0.60;;;;;;;20.09;64.72;100486.47;7360562;19;20090;-61
2023/07/16 08:41:33;;;;;;;7.60;0.50;;;;;;;20.06;63.77;100490.41;7359724;19;20019;-61
2023/07/16 08:44:01;;;;;;;8.43;0.85;;;;;;;20.09;63.41;100486.47;7362728;19;20013;-61
2023/07/16 08:46:28;;;;;;;6.78;0.40;;;;;;;20.07;62.81;100501.91;7363571;19;20065;-62
2023/07/16 08:48:56;;;;;;;10.05;0.60;;;;;;;20.08;63.12;100506.22;7359709;19;20010;-63
2023/07/16 08:51:26;;;;;;;11.48;1.00;;;;;;;20.04;61.87;100495.16;7364006;19;20014;-63
2023/07/16 08:53:54;;;;;;;5.97;0.98;;;;;;;20.09;61.59;100499.84;7360300;19;20498;-62
2023/07/16 08:56:21;;;;;;;6.68;0.80;;;;;;;20.17;62.02;100504.06;7362634;19;20022;-61
2023/07/16 08:58:49;;;;;;;10.18;0.70;;;;;;;20.23;62.52;100498.63;7363283;19;20093;-61
2023/07/16 09:01:18;;;;;;;9.95;0.60;;;;;;;20.26;60.56;100505.41;7364148;19;20011;-63
2023/07/16 09:03:50;;;;;;;8.88;0.80;;;;;;;20.34;61.28;100500.59;7362065;19;20170;-62
2023/07/16 09:06:18;;;;;;;8.60;0.50;;;;;;;20.42;61.66;100496.78;7360931;19;20329;-61
2023/07/16 09:08:46;;;;;;;3.95;0.60;;;;;;;20.42;60.39;100502.94;7301256;19;20387;-62
2023/07/16 09:11:13;;;;;;;8.05;0.70;;;;;;;20.47;61.28;100511.09;7354769;19;20018;-62
2023/07/16 09:13:44;;;;;;;4.25;0.90;;;;;;;20.53;59.97;100509.41;7361025;19;20351;-62
2023/07/16 09:16:12;;;;;;;8.23;0.65;;;;;;;20.54;58.03;100513.72;7356358;19;20018;-61
2023/07/16 09:18:41;;;;;;;5.75;0.85;;;;;;;20.55;58.98;100518.00;7358992;19;20025;-62
2023/07/16 09:21:09;;;;;;;9.13;0.80;;;;;;;20.66;59.75;100519.94;7365547;19;20467;-62
2023/07/16 09:23:37;;;;;;;7.30;0.55;;;;;;;20.76;59.10;100516.72;7358795;19;21328;-62
2023/07/16 09:26:04;;;;;;;4.90;0.60;;;;;;;20.84;58.50;100511.84;7360692;19;20028;-61
2023/07/16 09:28:32;;;;;;;8.43;0.30;;;;;;;20.94;56.28;100516.63;7360437;19;20031;-63
2023/07/16 09:31:07;;;;;;;6.00;0.50;;;;;;;21.02;55.62;100520.88;7356958;19;20007;-61
2023/07/16 09:33:35;;;;;;;4.70;0.50;;;;;;;21.07;55.77;100521.00;7359458;19;20040;-61
2023/07/16 09:36:03;;;;;;;5.25;0.50;;;;;;;21.10;53.93;100534.72;7361137;19;20025;-61
2023/07/16 09:38:33;;;;;;;3.33;0.30;;;;;;;21.10;52.92;100532.06;7361369;19;21061;-61
2023/07/16 09:41:02;;;;;;;4.72;0.28;;;;;;;21.05;52.18;100533.78;7359131;19;20018;-62
2023/07/16 09:43:30;;;;;;;3.90;0.30;;;;;;;21.01;51.57;100533.44;7357851;19;20015;-62
2023/07/16 09:45:59;;;;;;;4.45;0.50;;;;;;;21.04;52.17;100534.81;7358552;19;20014;-62
2023/07/16 09:48:26;;;;;;;3.92;0.30;;;;;;;21.08;52.03;100533.34;7300887;19;20019;-61
2023/07/16 09:50:55;;;;;;;3.88;0.30;;;;;;;21.13;51.43;100539.59;7353664;19;20970;-61
2023/07/16 09:53:24;;;;;;;6.22;0.40;;;;;;;21.15;51.26;100537.56;7360041;19;20007;-61
2023/07/16 09:55:56;;;;;;;5.55;0.68;;;;;;;21.23;51.40;100533.75;7362541;19;20014;-61
2023/07/16 09:58:24;;;;;;;4.55;0.40;;;;;;;21.32;51.72;100538.53;7359637;19;20015;-62
2023/07/16 10:00:52;;;;;;;3.42;0.40;;;;;;;21.40;51.64;100537.38;7359198;19;20055;-62
2023/07/16 10:03:20;;;;;;;5.18;0.43;;;;;;;21.49;50.89;100538.66;7357805;19;20014;-63
2023/07/16 10:05:47;;;;;;;5.15;0.40;;;;;;;21.48;50.75;100545.09;7360409;19;20014;-61
2023/07/16 10:08:17;;;;;;;4.05;0.30;;;;;;;21.48;49.89;100549.63;7355373;19;20058;-62
2023/07/16 10:10:48;;;;;;;3.15;0.30;;;;;;;21.51;49.93;100543.78;7353669;19;20082;-62
2023/07/16 10:13:16;;;;;;;3.85;0.30;;;;;;;21.60;49.43;100545.88;7358086;19;20070;-61
2023/07/16 10:15:49;;;;;;;7.80;0.50;;;;;;;21.72;49.68;100545.91;7356077;19;20090;-60
2023/07/16 10:18:23;;;;;;;7.20;0.40;;;;;;;21.75;49.78;100553.47;7356646;19;20014;-62
2023/07/16 10:20:51;;;;;;;3.45;0.65;;;;;;;21.84;50.40;100553.94;7361295;19;20047;-61
2023/07/16 10:23:19;;;;;;;2.03;0.40;;;;;;;21.95;48.75;100545.09;7358671;19;20018;-61
2023/07/16 10:25:53;;;;;;;4.68;0.88;;;;;;;22.02;48.79;100551.16;7358420;19;20146;-61
2023/07/16 10:28:20;;;;;;;4.43;0.50;;;;;;;22.08;49.60;100552.91;7356345;19;20018;-61
2023/07/16 10:30:50;;;;;;;3.15;0.30;;;;;;;22.13;47.26;100555.69;7356685;19;20021;-61
2023/07/16 10:33:17;;;;;;;5.43;0.95;;;;;;;22.19;48.60;100554.78;7356301;19;20046;-61
2023/07/16 10:35:46;;;;;;;5.05;1.05;;;;;;;22.30;49.12;100556.59;7358402;19;20028;-61
2023/07/16 10:38:13;;;;;;;2.60;0.60;;;;;;;22.37;48.50;100565.31;7357574;19;20019;-62
2023/07/16 10:40:45;;;;;;;2.55;0.88;;;;;;;22.40;48.74;100570.19;7356796;19;21819;-61
2023/07/16 10:43:12;;;;;;;2.97;1.45;;;;;;;22.41;49.80;100565.66;7352442;19;20479;-62
2023/07/16 10:45:41;;;;;;;5.30;0.90;;;;;;;22.35;47.94;100566.63;7357561;19;20609;-62
2023/07/16 10:48:08;;;;;;;4.75;0.52;;;;;;;22.28;47.85;100556.03;7355426;19;20052;-62
2023/07/16 10:50:38;;;;;;;3.92;0.70;;;;;;;22.23;47.75;100563.97;7355414;19;20359;-63
2023/07/16 10:53:06;;;;;;;5.65;0.82;;;;;;;22.25;47.49;100555.69;7357239;19;21624;-62
2023/07/16 10:55:37;;;;;;;3.35;0.65;;;;;;;22.29;49.64;100559.53;7359057;19;20022;-62
2023/07/16 10:58:06;;;;;;;4.43;0.73;;;;;;;22.32;49.11;100557.19;7358438;19;20199;-62
2023/07/16 11:00:39;;;;;;;5.78;1.10;;;;;;;22.37;49.97;100553.78;7357075;19;20084;-61
2023/07/16 11:03:06;;;;;;;5.75;1.85;;;;;;;22.39;48.69;100549.81;7361086;19;20134;-62
2023/07/16 11:05:35;;;;;;;5.00;0.50;;;;;;;22.42;49.32;100554.69;7365000;19;20376;-62
2023/07/16 11:08:02;;;;;;;4.40;1.00;;;;;;;22.45;48.95;100558.78;7362035;19;20021;-62
2023/07/16 11:10:30;;;;;;;4.15;0.60;;;;;;;22.50;49.16;100564.25;7364508;19;20034;-63
2023/07/16 11:12:58;;;;;;;3.95;0.73;;;;;;;22.54;48.71;100566.22;7362813;19;20033;-62
2023/07/16 11:15:29;;;;;;;4.25;0.50;;;;;;;22.53;48.50;100564.59;7366075;19;20022;-61
2023/07/16 11:17:57;;;;;;;3.00;0.60;;;;;;;22.48;48.44;100567.16;7364346;19;20038;-63
2023/07/16 11:20:24;;;;;;;2.22;0.40;;;;;;;22.41;48.35;100560.28;7366041;19;20011;-62
2023/07/16 11:22:52;;;;;;;3.67;0.43;;;;;;;22.41;49.21;100560.28;7363047;19;20019;-61
2023/07/16 11:25:23;;;;;;;4.97;0.98;;;;;;;22.41;49.24;100555.75;7360389;19;20089;-63
2023/07/16 11:27:55;;;;;;;3.70;0.43;;;;;;;22.46;49.98;100558.53;7363732;19;20325;-61